Time;durP1;ratioP1;P1;durP2;ratioP2;P2;SDS_P1;SDS_P2;PMS_P1;PMS_P2;Temp;Humidity;BMP_temperature;BMP_pressure;BME280_temperature;BME280_humidity;BME280_pressure;Samples;Min_cycle;Max_cycle;Signal;HPM_P1;HPM_P2
2023/07/29 00:00:52;;;;;;;9.77;8.85;;;17.60;99.90;;;;;;5116484;27;20034;-69
2023/07/29 00:03:18;;;;;;;9.70;8.80;;;17.60;99.90;;;;;;5117671;27;20477;-68
2023/07/29 00:05:44;;;;;;;9.77;8.85;;;17.60;99.90;;;;;;5117060;27;20126;-68
2023/07/29 00:08:09;;;;;;;9.65;8.65;;;17.60;99.90;;;;;;5117422;27;20121;-68
2023/07/29 00:10:38;;;;;;;9.77;8.77;;;17.50;99.90;;;;;;5116228;27;20099;-69
2023/07/29 00:13:05;;;;;;;9.93;8.70;;;17.50;99.90;;;;;;5115980;27;20068;-69
2023/07/29 00:15:31;;;;;;;10.15;8.88;;;17.50;99.90;;;;;;5116412;27;20035;-69
2023/07/29 00:17:57;;;;;;;9.07;8.18;;;17.50;99.90;;;;;;5131816;27;20034;-70
2023/07/29 00:20:22;;;;;;;10.13;8.15;;;17.50;99.90;;;;;;5103626;27;20058;-69
2023/07/29 00:22:53;;;;;;;9.60;8.63;;;17.40;99.90;;;;;;5135166;27;20022;-69
2023/07/29 00:25:19;;;;;;;9.25;8.35;;;17.40;99.90;;;;;;5136439;27;20038;-69
2023/07/29 00:27:45;;;;;;;9.27;8.27;;;17.40;99.90;;;;;;5110601;27;20107;-69
2023/07/29 00:30:11;;;;;;;11.98;8.73;;;17.40;99.90;;;;;;5115805;27;20039;-69
2023/07/29 00:32:37;;;;;;;9.75;8.63;;;17.40;99.90;;;;;;5128512;27;20042;-69
2023/07/29 00:35:02;;;;;;;8.45;7.50;;;17.40;99.90;;;;;;5118704;27;20393;-69
2023/07/29 00:37:29;;;;;;;8.00;7.20;;;17.30;99.90;;;;;;5135443;27;20642;-69
2023/07/29 00:39:55;;;;;;;8.07;7.28;;;17.30;99.90;;;;;;5099755;27;20115;-68
2023/07/29 00:42:21;;;;;;;8.18;7.32;;;17.30;99.90;;;;;;5115330;27;20153;-68
2023/07/29 00:44:47;;;;;;;8.98;7.70;;;17.30;99.90;;;;;;5115600;27;20031;-69
2023/07/29 00:47:15;;;;;;;9.43;7.50;;;17.20;99.90;;;;;;5115527;27;20073;-69
2023/07/29 00:49:41;;;;;;;9.05;7.57;;;17.20;99.90;;;;;;5116527;27;20035;-68
2023/07/29 00:52:07;;;;;;;8.70;7.60;;;17.20;99.90;;;;;;5133617;27;20082;-69
2023/07/29 00:54:33;;;;;;;9.32;8.43;;;17.20;99.90;;;;;;5119357;27;20089;-69
2023/07/29 00:56:58;;;;;;;7.95;7.22;;;17.10;99.90;;;;;;5115220;27;20050;-69
2023/07/29 00:59:25;;;;;;;8.68;7.70;;;17.10;99.90;;;;;;5116796;27;20035;-69
2023/07/29 01:01:51;;;;;;;8.40;7.45;;;17.10;99.90;;;;;;5115452;27;20035;-69
2023/07/29 01:04:16;;;;;;;8.02;7.30;;;17.10;99.90;;;;;;5115507;27;20027;-69
2023/07/29 01:06:45;;;;;;;7.82;7.13;;;17.00;99.90;;;;;;5114924;27;20047;-68
2023/07/29 01:09:25;;;;;;;8.20;7.40;;;17.00;99.90;;;;;;5115377;27;20545;-69
2023/07/29 01:11:57;;;;;;;8.93;8.02;;;17.00;99.90;;;;;;5118043;27;20047;-69
2023/07/29 01:14:38;;;;;;;9.00;7.20;;;17.00;99.90;;;;;;5135139;27;20046;-69
2023/07/29 01:17:06;;;;;;;7.68;6.88;;;17.00;99.90;;;;;;5135246;27;20304;-69
2023/07/29 01:19:56;;;;;;;10.73;7.88;;;16.90;99.90;;;;;;5135223;27;20042;-69
2023/07/29 01:22:24;;;;;;;8.30;7.50;;;16.90;99.90;;;;;;5133743;27;20035;-69
2023/07/29 01:24:49;;;;;;;7.95;7.18;;;16.80;99.90;;;;;;5132056;27;20118;-69
2023/07/29 01:27:15;;;;;;;8.48;7.05;;;16.90;99.90;;;;;;5122266;27;20183;-70
2023/07/29 01:29:40;;;;;;;7.47;6.68;;;16.80;99.90;;;;;;5153749;27;20103;-69
2023/07/29 01:32:25;;;;;;;8.15;7.03;;;16.80;99.90;;;;;;5135096;27;20095;-68
2023/07/29 01:35:14;;;;;;;8.10;7.30;;;16.80;99.90;;;;;;5135208;27;20039;-69
2023/07/29 01:37:42;;;;;;;7.82;6.82;;;16.80;99.90;;;;;;5133347;27;20038;-68
2023/07/29 01:40:10;;;;;;;8.48;6.25;;;16.80;99.90;;;;;;5114561;27;20519;-68
2023/07/29 01:42:36;;;;;;;9.45;6.85;;;16.80;99.90;;;;;;5114568;27;20122;-68
2023/07/29 01:45:01;;;;;;;8.75;7.40;;;16.70;99.90;;;;;;5116137;27;20039;-69
2023/07/29 01:47:27;;;;;;;8.13;6.75;;;16.70;99.90;;;;;;5132768;27;20053;-68
2023/07/29 01:49:53;;;;;;;8.00;7.15;;;16.70;99.90;;;;;;5117090;27;20077;-69
2023/07/29 01:52:18;;;;;;;8.95;7.43;;;16.70;99.90;;;;;;5132296;27;20626;-68
2023/07/29 01:54:44;;;;;;;7.03;6.35;;;16.80;99.90;;;;;;5114221;27;20069;-69
2023/07/29 01:57:09;;;;;;;7.68;6.97;;;16.80;99.90;;;;;;5099916;27;20053;-69
2023/07/29 01:59:35;;;;;;;8.43;6.28;;;16.80;99.90;;;;;;5134830;27;20053;-68
2023/07/29 02:02:01;;;;;;;7.05;6.30;;;16.80;99.90;;;;;;5104892;27;20054;-69
2023/07/29 02:04:26;;;;;;;7.22;6.53;;;16.80;99.90;;;;;;5127739;27;20045;-69
2023/07/29 02:06:52;;;;;;;7.25;6.55;;;16.80;99.90;;;;;;5116890;27;20061;-69
2023/07/29 02:09:17;;;;;;;6.32;5.72;;;16.80;99.90;;;;;;5134497;27;20534;-69
2023/07/29 02:11:43;;;;;;;6.40;5.78;;;16.90;99.90;;;;;;5134499;27;20046;-69
2023/07/29 02:14:09;;;;;;;8.25;6.60;;;16.80;99.90;;;;;;5126640;27;20541;-69
2023/07/29 02:16:34;;;;;;;6.20;5.60;;;16.80;99.90;;;;;;5114008;27;20110;-69
2023/07/29 02:19:00;;;;;;;7.13;6.00;;;16.80;99.90;;;;;;5116009;27;20066;-69
2023/07/29 02:21:25;;;;;;;7.05;6.03;;;16.80;99.90;;;;;;5104347;27;20065;-69
2023/07/29 02:23:51;;;;;;;8.20;6.57;;;16.80;99.90;;;;;;5116235;27;20499;-68
2023/07/29 02:26:17;;;;;;;7.80;5.32;;;16.80;99.90;;;;;;5114333;27;20080;-69
2023/07/29 02:28:42;;;;;;;5.97;5.28;;;16.80;99.90;;;;;;5113604;27;20039;-68
2023/07/29 02:31:24;;;;;;;6.32;5.72;;;16.80;99.90;;;;;;5113538;27;20454;-69
2023/07/29 02:33:50;;;;;;;7.32;5.53;;;16.80;99.90;;;;;;5113430;27;20031;-69
2023/07/29 02:36:16;;;;;;;6.97;5.50;;;16.90;99.90;;;;;;5119879;27;20447;-69
2023/07/29 02:38:43;;;;;;;9.63;4.72;;;16.80;99.90;;;;;;5114298;27;20114;-69
2023/07/29 02:41:12;;;;;;;5.60;4.95;;;16.80;99.90;;;;;;5113293;27;20069;-69
2023/07/29 02:43:37;;;;;;;6.28;5.13;;;16.90;99.90;;;;;;5113539;27;20035;-69
2023/07/29 02:46:04;;;;;;;6.70;4.95;;;16.90;99.90;;;;;;5115743;27;20046;-69
2023/07/29 02:48:30;;;;;;;6.03;4.80;;;16.80;99.90;;;;;;5113322;27;20062;-69
2023/07/29 02:50:56;;;;;;;7.13;4.93;;;16.90;99.90;;;;;;5132289;27;20485;-68
2023/07/29 02:53:25;;;;;;;5.25;4.40;;;16.80;99.90;;;;;;5118065;27;20043;-69
2023/07/29 02:55:51;;;;;;;6.70;5.03;;;16.80;99.90;;;;;;5114537;27;20367;-69
2023/07/29 02:58:16;;;;;;;5.18;4.40;;;16.80;99.90;;;;;;5113691;27;20039;-69
2023/07/29 03:00:43;;;;;;;6.90;4.38;;;16.80;99.90;;;;;;5113094;27;20039;-69
2023/07/29 03:03:09;;;;;;;4.82;4.32;;;16.80;99.90;;;;;;5111926;27;20081;-69
2023/07/29 03:05:35;;;;;;;6.28;4.30;;;16.80;99.90;;;;;;5120359;27;20744;-69
2023/07/29 03:08:01;;;;;;;5.45;4.40;;;16.80;99.90;;;;;;5115866;27;20041;-69
2023/07/29 03:10:26;;;;;;;4.53;4.07;;;16.80;99.90;;;;;;5127805;27;20385;-68
2023/07/29 03:12:55;;;;;;;4.35;3.95;;;16.80;99.90;;;;;;5113144;27;20035;-69
2023/07/29 03:15:25;;;;;;;4.30;3.90;;;16.70;99.90;;;;;;5112623;28;20058;-68
2023/07/29 03:17:51;;;;;;;4.40;3.90;;;16.70;99.90;;;;;;5122830;27;20169;-69
2023/07/29 03:20:17;;;;;;;6.05;3.95;;;16.70;99.90;;;;;;5112690;28;20039;-68
2023/07/29 03:22:44;;;;;;;4.80;3.70;;;16.70;99.90;;;;;;5115429;27;20066;-69
2023/07/29 03:25:10;;;;;;;4.57;3.95;;;16.60;99.90;;;;;;5096282;28;20055;-69
2023/07/29 03:27:36;;;;;;;4.82;4.22;;;16.60;99.90;;;;;;5131382;27;20120;-69
2023/07/29 03:30:06;;;;;;;6.13;3.60;;;16.60;99.90;;;;;;5115226;28;20031;-69
2023/07/29 03:32:32;;;;;;;4.57;3.53;;;16.60;99.90;;;;;;5112601;28;20043;-68
2023/07/29 03:34:58;;;;;;;3.85;3.10;;;16.60;99.90;;;;;;5112634;27;20169;-68
2023/07/29 03:37:24;;;;;;;5.85;3.30;;;16.60;99.90;;;;;;5131704;27;20580;-68
2023/07/29 03:39:51;;;;;;;6.07;3.33;;;16.50;99.90;;;;;;5122513;28;20142;-69
2023/07/29 03:42:17;;;;;;;5.60;3.92;;;16.50;99.90;;;;;;5131999;27;20045;-70
2023/07/29 03:44:43;;;;;;;4.15;3.30;;;16.50;99.90;;;;;;5115648;28;20405;-69
2023/07/29 03:47:08;;;;;;;4.72;3.28;;;16.50;99.90;;;;;;5112524;27;20027;-68
2023/07/29 03:49:34;;;;;;;5.07;3.10;;;16.40;99.90;;;;;;5114027;27;20046;-69
2023/07/29 03:52:00;;;;;;;4.30;2.70;;;16.40;99.90;;;;;;5113092;27;20080;-69
2023/07/29 03:54:26;;;;;;;3.45;2.97;;;16.50;99.90;;;;;;5133305;27;20498;-69
2023/07/29 03:56:51;;;;;;;3.20;2.90;;;16.40;99.90;;;;;;5129554;27;20047;-69
2023/07/29 03:59:17;;;;;;;3.47;2.90;;;16.40;99.90;;;;;;5112801;27;20035;-69
2023/07/29 04:01:43;;;;;;;2.88;2.60;;;16.40;99.90;;;;;;5117354;27;20035;-69
2023/07/29 04:04:08;;;;;;;3.83;2.90;;;16.40;99.90;;;;;;5112282;28;20122;-69
2023/07/29 04:06:34;;;;;;;6.13;2.50;;;16.40;99.90;;;;;;5112384;28;20039;-68
2023/07/29 04:09:00;;;;;;;3.25;2.53;;;16.40;99.90;;;;;;5112417;28;20057;-68
2023/07/29 04:11:25;;;;;;;3.85;2.45;;;16.40;99.90;;;;;;5121153;28;20474;-69
2023/07/29 04:13:51;;;;;;;4.95;2.35;;;16.40;99.90;;;;;;5112943;27;20055;-69
2023/07/29 04:16:17;;;;;;;2.95;2.33;;;16.40;99.90;;;;;;5116314;27;20062;-69
2023/07/29 04:18:42;;;;;;;3.42;2.47;;;16.40;99.90;;;;;;5116758;27;20043;-69
2023/07/29 04:21:09;;;;;;;2.42;2.22;;;16.40;99.90;;;;;;5116697;27;20556;-69
2023/07/29 04:23:35;;;;;;;2.83;2.40;;;16.40;99.90;;;;;;5117548;27;20031;-69
2023/07/29 04:26:00;;;;;;;4.20;2.22;;;16.40;99.90;;;;;;5098774;27;20401;-69
2023/07/29 04:28:26;;;;;;;6.43;2.80;;;16.40;99.90;;;;;;5115662;27;20489;-69
2023/07/29 04:30:52;;;;;;;3.65;2.00;;;16.40;99.90;;;;;;5117523;27;20115;-68
2023/07/29 04:33:17;;;;;;;4.65;1.92;;;16.40;99.90;;;;;;5115875;27;20035;-69
2023/07/29 04:35:43;;;;;;;2.83;2.13;;;16.40;99.90;;;;;;5117341;27;20572;-69
2023/07/29 04:38:09;;;;;;;2.60;2.40;;;16.40;99.90;;;;;;5115731;27;20038;-69
2023/07/29 04:40:34;;;;;;;3.63;2.35;;;16.40;99.90;;;;;;5117456;27;20070;-69
2023/07/29 04:43:01;;;;;;;2.38;2.17;;;16.40;99.90;;;;;;5115947;27;20039;-68
2023/07/29 04:45:30;;;;;;;3.00;1.90;;;16.40;99.90;;;;;;5115601;27;20031;-68
2023/07/29 04:47:58;;;;;;;3.97;2.40;;;16.40;99.90;;;;;;5115512;27;20035;-68
2023/07/29 04:50:23;;;;;;;2.63;2.42;;;16.40;99.90;;;;;;5098274;27;20043;-69
2023/07/29 04:52:49;;;;;;;3.85;2.33;;;16.40;99.90;;;;;;5131657;27;20090;-69
2023/07/29 04:55:15;;;;;;;2.85;2.50;;;16.40;99.90;;;;;;5135701;27;20046;-68
2023/07/29 04:57:40;;;;;;;4.18;2.40;;;16.40;99.90;;;;;;5134473;27;20037;-68
2023/07/29 05:00:06;;;;;;;4.10;2.83;;;16.40;99.90;;;;;;5128679;27;20096;-69
2023/07/29 05:02:32;;;;;;;3.55;2.17;;;16.50;99.90;;;;;;5117817;27;20031;-69
2023/07/29 05:04:58;;;;;;;3.53;2.42;;;16.40;99.90;;;;;;5119783;27;20035;-69
2023/07/29 05:07:23;;;;;;;3.63;2.28;;;16.50;99.90;;;;;;5117457;27;20390;-68
2023/07/29 05:09:49;;;;;;;3.63;2.55;;;16.50;99.90;;;;;;5117366;27;20122;-68
2023/07/29 05:12:14;;;;;;;3.95;2.50;;;16.50;99.90;;;;;;5115382;27;20039;-69
2023/07/29 05:14:40;;;;;;;3.90;2.22;;;16.50;99.90;;;;;;5098703;27;20047;-68
2023/07/29 05:17:06;;;;;;;5.93;2.78;;;16.50;99.90;;;;;;5115126;27;20081;-67
2023/07/29 05:19:31;;;;;;;4.65;2.63;;;16.60;99.90;;;;;;5114949;27;20074;-69
2023/07/29 05:21:57;;;;;;;3.60;2.40;;;16.60;99.90;;;;;;5117314;27;20062;-68
2023/07/29 05:24:24;;;;;;;4.53;3.00;;;16.60;99.90;;;;;;5126862;27;20031;-69
2023/07/29 05:26:49;;;;;;;3.70;2.60;;;16.60;99.90;;;;;;5133467;27;20043;-69
2023/07/29 05:29:15;;;;;;;3.08;2.70;;;16.60;99.90;;;;;;5119875;27;20043;-68
2023/07/29 05:31:41;;;;;;;3.60;2.35;;;16.70;99.90;;;;;;5119799;27;20042;-68
2023/07/29 05:34:07;;;;;;;8.63;3.05;;;16.70;99.90;;;;;;5116017;27;20087;-68
2023/07/29 05:36:32;;;;;;;6.47;2.90;;;16.70;99.90;;;;;;5113971;27;20042;-68
2023/07/29 05:38:58;;;;;;;5.43;2.80;;;16.70;99.90;;;;;;5129327;27;20113;-69
2023/07/29 05:41:26;;;;;;;6.47;2.85;;;16.70;99.90;;;;;;5134730;27;20046;-69
2023/07/29 05:43:51;;;;;;;6.90;3.42;;;16.70;99.90;;;;;;5128938;27;20434;-68
2023/07/29 05:46:17;;;;;;;5.80;3.17;;;16.70;99.90;;;;;;5130472;27;20035;-68
2023/07/29 05:48:42;;;;;;;7.18;3.58;;;16.70;99.90;;;;;;5118644;27;20039;-68
2023/07/29 05:51:08;;;;;;;7.65;3.97;;;16.70;99.90;;;;;;5132909;27;20039;-69
2023/07/29 05:53:34;;;;;;;7.40;3.95;;;16.70;99.90;;;;;;5130689;27;20043;-68
2023/07/29 05:55:59;;;;;;;8.00;4.50;;;16.80;99.90;;;;;;5121119;27;20043;-69
2023/07/29 05:58:25;;;;;;;7.32;4.65;;;16.80;99.90;;;;;;5113732;27;20477;-68
2023/07/29 06:00:51;;;;;;;8.25;4.93;;;16.80;99.90;;;;;;5130456;27;20049;-68
2023/07/29 06:03:16;;;;;;;8.75;5.03;;;16.80;99.90;;;;;;5130164;27;20034;-68
2023/07/29 06:05:42;;;;;;;9.57;5.13;;;16.80;99.90;;;;;;5100718;27;21743;-68
2023/07/29 06:08:08;;;;;;;9.55;4.90;;;16.90;99.90;;;;;;5096689;27;20133;-68
2023/07/29 06:10:34;;;;;;;7.63;5.40;;;16.90;99.90;;;;;;5114942;27;20508;-68
2023/07/29 06:13:00;;;;;;;8.68;5.10;;;17.00;99.90;;;;;;5113605;27;20499;-67
2023/07/29 06:15:25;;;;;;;10.50;5.10;;;17.10;99.90;;;;;;5112697;27;20928;-69
2023/07/29 06:17:51;;;;;;;9.73;5.20;;;17.30;99.90;;;;;;5133517;27;20111;-68
2023/07/29 06:20:17;;;;;;;7.20;4.85;;;17.40;99.90;;;;;;5126350;27;20067;-68
2023/07/29 06:22:45;;;;;;;9.95;5.28;;;17.40;99.90;;;;;;5136708;27;20109;-68
2023/07/29 06:25:11;;;;;;;8.48;5.10;;;17.40;99.90;;;;;;5117895;27;20052;-68
2023/07/29 06:27:36;;;;;;;10.73;5.35;;;17.50;99.90;;;;;;5115273;27;20108;-68
2023/07/29 06:30:02;;;;;;;8.13;4.78;;;17.40;99.90;;;;;;5125647;27;20046;-68
2023/07/29 06:32:28;;;;;;;9.98;5.47;;;17.50;99.90;;;;;;5132327;27;20050;-69
2023/07/29 06:34:54;;;;;;;9.25;4.95;;;17.50;99.90;;;;;;5116531;27;20480;-68
2023/07/29 06:37:20;;;;;;;10.40;5.18;;;17.60;99.90;;;;;;5117283;27;20042;-69
2023/07/29 06:39:46;;;;;;;11.23;5.60;;;17.60;99.90;;;;;;5120687;27;20124;-68
2023/07/29 06:42:11;;;;;;;10.18;5.80;;;17.60;99.90;;;;;;5114248;27;20159;-69
2023/07/29 06:44:37;;;;;;;8.60;4.90;;;17.70;99.90;;;;;;5113399;27;20039;-68
2023/07/29 06:47:03;;;;;;;13.93;6.57;;;17.70;99.90;;;;;;5113380;27;20397;-68
2023/07/29 06:49:28;;;;;;;8.07;4.75;;;17.70;99.90;;;;;;5096234;27;20485;-69
2023/07/29 06:51:54;;;;;;;7.63;4.72;;;17.70;99.90;;;;;;5113447;27;20504;-68
2023/07/29 06:54:24;;;;;;;10.05;5.53;;;17.80;99.90;;;;;;5113457;27;20094;-68
2023/07/29 06:56:50;;;;;;;8.63;5.00;;;17.80;99.90;;;;;;5125206;27;20053;-69
2023/07/29 06:59:16;;;;;;;8.13;5.35;;;17.80;99.90;;;;;;5133927;27;20105;-69
2023/07/29 07:01:41;;;;;;;6.82;5.10;;;17.80;99.90;;;;;;5134050;27;20433;-68
2023/07/29 07:04:07;;;;;;;9.18;5.10;;;17.90;99.90;;;;;;5133677;27;20074;-69
2023/07/29 07:06:32;;;;;;;8.60;5.30;;;17.90;99.90;;;;;;5133680;27;20039;-69
2023/07/29 07:08:58;;;;;;;12.30;5.20;;;17.90;99.90;;;;;;5133461;27;20039;-68
2023/07/29 07:11:24;;;;;;;8.68;4.93;;;18.00;99.90;;;;;;5133573;27;20034;-68
2023/07/29 07:13:49;;;;;;;8.30;5.22;;;18.10;99.90;;;;;;5133213;27;20790;-69
2023/07/29 07:16:15;;;;;;;6.13;4.60;;;18.10;99.90;;;;;;5116110;27;20066;-69
2023/07/29 07:18:41;;;;;;;7.30;4.70;;;18.20;99.90;;;;;;5133535;27;20397;-69
2023/07/29 07:21:06;;;;;;;7.55;4.53;;;18.30;99.90;;;;;;5151912;27;20123;-69
2023/07/29 07:23:32;;;;;;;6.57;4.70;;;18.40;99.90;;;;;;5133632;27;20075;-69
2023/07/29 07:25:57;;;;;;;7.03;4.68;;;18.50;99.90;;;;;;5133255;27;20042;-70
2023/07/29 07:28:23;;;;;;;7.10;5.00;;;18.60;99.90;;;;;;5133575;27;20051;-68
2023/07/29 07:30:49;;;;;;;6.97;4.40;;;18.70;99.90;;;;;;5133319;27;20042;-69
2023/07/29 07:33:14;;;;;;;7.55;4.70;;;18.80;99.90;;;;;;5133917;27;20042;-69
2023/07/29 07:35:42;;;;;;;6.65;4.57;;;18.80;99.90;;;;;;5133427;27;20045;-68
2023/07/29 07:38:09;;;;;;;6.40;4.38;;;18.80;99.90;;;;;;5133196;27;20068;-70
2023/07/29 07:40:35;;;;;;;7.10;4.30;;;18.80;99.90;;;;;;5133229;27;20050;-69
2023/07/29 07:43:01;;;;;;;9.82;4.65;;;18.70;99.90;;;;;;5133121;27;20401;-68
2023/07/29 07:45:27;;;;;;;5.72;4.38;;;18.70;99.90;;;;;;5133312;27;20038;-69
2023/07/29 07:47:53;;;;;;;10.70;4.55;;;18.70;99.90;;;;;;5133054;27;20051;-68
2023/07/29 07:50:19;;;;;;;9.43;4.32;;;18.70;99.90;;;;;;5132689;27;20043;-70
2023/07/29 07:52:45;;;;;;;6.07;4.00;;;18.70;99.90;;;;;;5116934;27;20513;-69
2023/07/29 07:55:11;;;;;;;6.03;3.65;;;18.80;99.90;;;;;;5116346;27;20073;-69
2023/07/29 07:57:37;;;;;;;6.10;3.50;;;18.90;99.90;;;;;;5116364;27;20485;-69
2023/07/29 08:00:04;;;;;;;7.07;3.90;;;19.00;99.90;;;;;;5116222;27;20035;-69
2023/07/29 08:02:30;;;;;;;8.63;4.03;;;19.20;99.90;;;;;;5116896;27;20096;-69
2023/07/29 08:04:55;;;;;;;4.50;3.03;;;19.40;99.90;;;;;;5116159;27;20035;-69
2023/07/29 08:07:21;;;;;;;6.85;4.10;;;19.50;99.90;;;;;;5116399;27;20035;-68
2023/07/29 08:09:47;;;;;;;5.95;3.83;;;19.50;99.90;;;;;;5116504;27;20086;-69
2023/07/29 08:12:12;;;;;;;6.30;3.10;;;19.50;99.90;;;;;;5116236;27;20035;-69
2023/07/29 08:14:38;;;;;;;4.25;2.95;;;19.50;99.90;;;;;;5116224;27;20469;-68
2023/07/29 08:17:04;;;;;;;7.47;2.95;;;19.50;99.90;;;;;;5115771;27;20053;-69
2023/07/29 08:19:29;;;;;;;8.82;3.00;;;19.70;99.90;;;;;;5116205;27;20079;-68
2023/07/29 08:21:55;;;;;;;3.10;2.38;;;19.90;99.90;;;;;;5116107;27;20039;-69
2023/07/29 08:24:21;;;;;;;4.80;2.75;;;20.00;99.90;;;;;;5115736;27;20039;-69
2023/07/29 08:26:46;;;;;;;6.70;2.92;;;20.00;99.90;;;;;;5116078;27;20046;-69
2023/07/29 08:29:12;;;;;;;6.20;2.50;;;19.90;99.90;;;;;;5115906;27;20412;-69
2023/07/29 08:31:38;;;;;;;4.68;2.55;;;19.80;99.90;;;;;;5116456;27;20035;-69
2023/07/29 08:34:04;;;;;;;4.00;2.15;;;19.90;99.90;;;;;;5116055;27;20538;-69
2023/07/29 08:36:30;;;;;;;5.43;2.08;;;19.90;99.90;;;;;;5116023;27;20043;-68
2023/07/29 08:38:55;;;;;;;5.28;2.53;;;19.80;99.90;;;;;;5115826;27;20088;-69
2023/07/29 08:41:45;;;;;;;7.97;2.50;;;19.90;99.90;;;;;;5115794;27;20042;-69
2023/07/29 08:44:26;;;;;;;5.00;2.50;;;20.00;99.90;;;;;;5115537;27;20370;-69
2023/07/29 08:46:53;;;;;;;6.13;2.17;;;20.00;99.90;;;;;;5115755;27;20119;-69
2023/07/29 08:49:19;;;;;;;4.75;2.00;;;20.00;99.90;;;;;;5115297;27;20519;-68
2023/07/29 08:51:49;;;;;;;5.65;2.10;;;20.10;99.90;;;;;;5116204;27;20558;-69
2023/07/29 08:54:15;;;;;;;5.22;2.20;;;20.30;99.90;;;;;;5115578;27;20050;-69
2023/07/29 08:56:42;;;;;;;5.53;2.20;;;20.20;99.90;;;;;;5115527;27;20102;-69
2023/07/29 08:59:09;;;;;;;6.88;2.63;;;20.50;99.90;;;;;;5133894;27;20040;-69
2023/07/29 09:01:34;;;;;;;4.20;1.75;;;20.80;99.90;;;;;;5128833;27;20038;-69
2023/07/29 09:04:00;;;;;;;6.72;1.95;;;20.80;99.90;;;;;;5135861;27;20095;-69
2023/07/29 09:06:27;;;;;;;4.95;1.90;;;21.00;99.90;;;;;;5135581;27;20030;-69
2023/07/29 09:08:56;;;;;;;4.20;1.70;;;21.00;99.90;;;;;;5135852;27;20034;-69
2023/07/29 09:11:22;;;;;;;4.95;1.70;;;21.20;99.90;;;;;;5135685;27;20060;-69
2023/07/29 09:13:48;;;;;;;4.32;1.58;;;21.00;99.90;;;;;;5136058;27;20125;-69
2023/07/29 09:16:14;;;;;;;3.65;1.98;;;21.00;99.90;;;;;;5135447;27;20141;-69
2023/07/29 09:18:40;;;;;;;4.25;1.90;;;20.80;99.90;;;;;;5134605;27;20085;-69
2023/07/29 09:21:06;;;;;;;5.35;2.25;;;20.70;99.90;;;;;;5135800;27;20034;-69
2023/07/29 09:23:42;;;;;;;5.32;1.90;;;20.80;99.90;;;;;;5135750;27;20042;-69
2023/07/29 09:26:08;;;;;;;5.55;1.70;;;21.00;99.90;;;;;;5135699;27;20485;-68
2023/07/29 09:28:35;;;;;;;3.97;1.70;;;21.10;99.90;;;;;;5135553;27;20038;-69
2023/07/29 09:31:01;;;;;;;5.30;1.60;;;21.30;99.90;;;;;;5135402;27;20389;-68
2023/07/29 09:33:28;;;;;;;3.75;1.42;;;21.60;99.90;;;;;;5135468;27;20717;-68
2023/07/29 09:35:53;;;;;;;4.05;1.70;;;21.80;99.90;;;;;;5135463;27;20042;-68
2023/07/29 09:38:27;;;;;;;5.05;1.83;;;21.80;99.90;;;;;;5135255;27;20043;-69
2023/07/29 09:40:56;;;;;;;3.75;1.75;;;21.70;99.90;;;;;;5121918;27;20047;-69
2023/07/29 09:43:32;;;;;;;3.83;1.60;;;21.60;99.90;;;;;;5106193;27;20099;-69
2023/07/29 09:46:02;;;;;;;3.88;1.55;;;21.40;99.90;;;;;;5135211;27;20026;-69
2023/07/29 09:48:32;;;;;;;3.33;1.45;;;21.20;99.90;;;;;;5135147;27;20381;-68
2023/07/29 09:50:57;;;;;;;6.05;2.10;;;21.10;99.90;;;;;;5135172;27;20039;-70
2023/07/29 09:53:24;;;;;;;4.50;1.98;;;21.40;99.90;;;;;;5134728;27;20134;-69
2023/07/29 09:55:52;;;;;;;4.97;1.70;;;21.40;99.90;;;;;;5118142;27;20117;-69
2023/07/29 09:58:25;;;;;;;3.25;1.80;;;21.40;99.90;;;;;;5117847;27;20468;-69
2023/07/29 10:00:51;;;;;;;4.13;1.80;;;21.30;99.90;;;;;;5134982;27;20046;-69
2023/07/29 10:03:18;;;;;;;5.03;2.38;;;21.50;99.90;;;;;;5117799;27;20094;-70
2023/07/29 10:05:45;;;;;;;3.42;2.03;;;21.40;99.90;;;;;;5117078;27;20404;-68
2023/07/29 10:08:12;;;;;;;4.78;2.53;;;21.20;99.90;;;;;;5135212;27;20473;-69
2023/07/29 10:10:38;;;;;;;4.07;2.50;;;21.20;99.90;;;;;;5152917;27;20074;-69
2023/07/29 10:13:04;;;;;;;5.30;2.25;;;21.10;99.90;;;;;;5134224;27;20496;-68
2023/07/29 10:15:32;;;;;;;3.47;2.00;;;21.00;99.90;;;;;;5134139;27;20086;-70
2023/07/29 10:17:59;;;;;;;4.88;1.95;;;20.90;99.90;;;;;;5134582;27;20393;-68
2023/07/29 10:20:25;;;;;;;4.07;2.30;;;20.80;99.90;;;;;;5134350;27;20126;-69
2023/07/29 10:22:54;;;;;;;4.20;2.70;;;20.70;99.90;;;;;;5134746;27;20540;-69
2023/07/29 10:25:22;;;;;;;5.88;2.55;;;20.60;99.90;;;;;;5134705;27;20038;-70
2023/07/29 10:28:04;;;;;;;2.72;2.53;;;20.50;99.90;;;;;;5134387;27;20038;-68
2023/07/29 10:30:31;;;;;;;4.10;2.80;;;20.60;99.90;;;;;;5134184;27;20042;-69
2023/07/29 10:32:58;;;;;;;3.72;2.88;;;20.70;99.90;;;;;;5134286;27;20042;-68
2023/07/29 10:35:25;;;;;;;4.28;2.70;;;20.70;99.90;;;;;;5123644;27;20046;-69
2023/07/29 10:37:53;;;;;;;5.35;3.33;;;20.70;99.90;;;;;;5113683;27;20122;-68
2023/07/29 10:40:19;;;;;;;4.32;2.47;;;20.60;99.90;;;;;;5113723;27;20035;-69
2023/07/29 10:43:10;;;;;;;5.53;3.90;;;20.50;99.90;;;;;;5113617;27;20038;-68
2023/07/29 10:45:41;;;;;;;6.43;5.03;;;20.30;99.90;;;;;;5113782;27;20110;-69
2023/07/29 10:48:34;;;;;;;6.25;5.65;;;20.00;99.90;;;;;;5113466;27;20127;-69
2023/07/29 10:51:26;;;;;;;5.32;4.63;;;19.90;99.90;;;;;;5128274;27;20107;-69
2023/07/29 10:53:58;;;;;;;6.73;4.60;;;19.90;99.90;;;;;;5133930;27;20050;-69
2023/07/29 10:56:30;;;;;;;5.40;3.70;;;19.80;99.90;;;;;;5133571;27;20046;-68
2023/07/29 10:58:57;;;;;;;5.82;3.85;;;19.90;99.90;;;;;;5133685;27;20042;-69
2023/07/29 11:01:43;;;;;;;5.57;3.92;;;20.00;99.90;;;;;;5134113;27;20042;-69
2023/07/29 11:04:24;;;;;;;4.70;3.53;;;20.40;99.90;;;;;;5133785;27;20113;-69
2023/07/29 11:07:01;;;;;;;4.72;2.80;;;20.40;99.90;;;;;;5133589;27;20491;-69
2023/07/29 11:09:55;;;;;;;6.15;2.30;;;20.30;99.90;;;;;;5133919;27;20050;-69
2023/07/29 11:12:39;;;;;;;2.70;2.08;;;20.10;99.90;;;;;;5134083;27;20035;-69
2023/07/29 11:15:11;;;;;;;6.60;2.25;;;19.80;99.90;;;;;;5133313;27;20061;-69
2023/07/29 11:17:42;;;;;;;6.13;2.28;;;19.70;99.90;;;;;;5133360;27;20506;-69
2023/07/29 11:20:09;;;;;;;6.30;2.70;;;19.70;99.90;;;;;;5133965;27;20488;-69
2023/07/29 11:22:35;;;;;;;5.53;2.33;;;19.90;99.90;;;;;;5133396;27;20526;-69
2023/07/29 11:25:02;;;;;;;6.30;2.30;;;20.10;99.90;;;;;;5132997;27;20046;-70
2023/07/29 11:27:27;;;;;;;6.78;2.05;;;20.40;99.90;;;;;;5133449;27;20138;-68
2023/07/29 11:29:58;;;;;;;3.92;1.83;;;20.30;99.90;;;;;;5114892;27;20070;-69
2023/07/29 11:32:25;;;;;;;4.65;1.83;;;20.30;99.90;;;;;;5113078;28;20092;-69
2023/07/29 11:34:50;;;;;;;5.13;2.22;;;20.30;99.90;;;;;;5116401;27;20089;-69
2023/07/29 11:37:16;;;;;;;5.18;2.00;;;20.40;99.90;;;;;;5133418;27;20070;-69
2023/07/29 11:39:44;;;;;;;6.22;2.00;;;20.50;99.90;;;;;;5133193;27;20381;-70
2023/07/29 11:42:16;;;;;;;4.18;1.90;;;20.50;99.90;;;;;;5133026;27;20094;-69
2023/07/29 11:44:41;;;;;;;;;;;20.80;99.90;;;;;;5133618;27;20034;-69
2023/07/29 11:47:08;;;;;;;5.22;2.00;;;21.00;99.90;;;;;;5133159;27;19915;-68
2023/07/29 11:49:35;;;;;;;5.28;3.35;;;21.00;99.90;;;;;;5133613;27;20095;-69
2023/07/29 11:52:02;;;;;;;3.78;2.03;;;21.10;99.90;;;;;;5133326;27;20035;-69
2023/07/29 11:54:28;;;;;;;4.07;1.90;;;21.30;99.90;;;;;;5133338;27;20113;-68
2023/07/29 11:56:55;;;;;;;5.07;2.50;;;21.50;99.90;;;;;;5133129;27;20458;-69
2023/07/29 11:59:21;;;;;;;4.20;1.90;;;21.60;99.90;;;;;;5115969;27;20050;-69
2023/07/29 12:01:47;;;;;;;5.03;2.40;;;21.60;99.90;;;;;;5132855;27;20049;-68
2023/07/29 12:04:14;;;;;;;5.38;2.08;;;21.60;99.90;;;;;;5133012;27;20027;-69
2023/07/29 12:06:40;;;;;;;4.18;2.03;;;21.70;99.90;;;;;;5133422;27;20034;-68
2023/07/29 12:09:05;;;;;;;2.97;2.28;;;21.70;99.90;;;;;;5132965;27;20038;-69
2023/07/29 12:11:32;;;;;;;3.70;2.00;;;21.70;99.90;;;;;;5133045;27;20397;-68
2023/07/29 12:13:59;;;;;;;4.88;2.08;;;21.60;99.90;;;;;;5132677;27;20065;-70
2023/07/29 12:16:25;;;;;;;4.63;2.08;;;21.50;99.90;;;;;;5133080;27;20437;-70
2023/07/29 12:18:50;;;;;;;4.22;2.00;;;21.40;99.90;;;;;;5132838;27;20538;-68
2023/07/29 12:21:18;;;;;;;4.45;2.00;;;21.60;99.90;;;;;;5115468;27;20529;-69
2023/07/29 12:23:44;;;;;;;3.75;2.08;;;21.50;99.90;;;;;;5123155;27;20046;-69
2023/07/29 12:26:10;;;;;;;5.60;2.05;;;21.70;99.90;;;;;;5112317;27;20041;-69
2023/07/29 12:28:35;;;;;;;2.95;1.90;;;21.80;99.90;;;;;;5112392;28;20091;-69
2023/07/29 12:31:01;;;;;;;4.43;2.53;;;21.80;99.90;;;;;;5112364;27;20041;-69
2023/07/29 12:33:35;;;;;;;3.33;1.95;;;21.80;99.90;;;;;;5112458;28;20043;-69
2023/07/29 12:36:00;;;;;;;5.30;2.05;;;21.70;99.90;;;;;;5114661;27;20459;-69
2023/07/29 12:38:27;;;;;;;2.75;1.70;;;21.60;99.90;;;;;;5116033;27;20118;-69
2023/07/29 12:40:53;;;;;;;4.25;1.83;;;21.50;99.90;;;;;;5115729;27;20039;-69
2023/07/29 12:43:18;;;;;;;3.10;1.70;;;21.40;99.90;;;;;;5116054;27;20042;-69
2023/07/29 12:45:44;;;;;;;2.70;1.80;;;21.40;99.90;;;;;;5115863;27;20035;-68